sensor_id;sensor_type;location;lat;lon;timestamp;temperature;humidity
16114;DHT22;8161;-33.910;151.156;2022-12-07T00:01:34;26.40;99.90
16114;DHT22;8161;-33.910;151.156;2022-12-07T00:04:03;26.40;99.90
16114;DHT22;8161;-33.910;151.156;2022-12-07T00:06:36;26.40;99.90
16114;DHT22;8161;-33.910;151.156;2022-12-07T00:09:05;26.50;99.90
16114;DHT22;8161;-33.910;151.156;2022-12-07T00:11:33;26.60;99.90
16114;DHT22;8161;-33.910;151.156;2022-12-07T00:14:03;26.80;99.90
16114;DHT22;8161;-33.910;151.156;2022-12-07T00:16:33;26.90;99.90
16114;DHT22;8161;-33.910;151.156;2022-12-07T00:19:01;27.00;99.90
16114;DHT22;8161;-33.910;151.156;2022-12-07T00:21:30;27.00;99.90
16114;DHT22;8161;-33.910;151.156;2022-12-07T00:23:59;27.00;99.90
16114;DHT22;8161;-33.910;151.156;2022-12-07T00:26:37;27.00;99.90
16114;DHT22;8161;-33.910;151.156;2022-12-07T00:29:08;27.00;99.90
16114;DHT22;8161;-33.910;151.156;2022-12-07T00:31:37;27.10;99.90
16114;DHT22;8161;-33.910;151.156;2022-12-07T00:34:13;27.20;99.90
16114;DHT22;8161;-33.910;151.156;2022-12-07T00:36:40;27.30;99.90
16114;DHT22;8161;-33.910;151.156;2022-12-07T00:39:11;27.40;99.90
16114;DHT22;8161;-33.910;151.156;2022-12-07T00:41:38;27.30;99.90
16114;DHT22;8161;-33.910;151.156;2022-12-07T00:44:06;27.60;99.90
16114;DHT22;8161;-33.910;151.156;2022-12-07T00:46:33;27.90;99.90
16114;DHT22;8161;-33.910;151.156;2022-12-07T00:49:00;28.00;99.90
16114;DHT22;8161;-33.910;151.156;2022-12-07T00:51:28;28.10;99.90
16114;DHT22;8161;-33.910;151.156;2022-12-07T00:53:55;28.40;99.90
16114;DHT22;8161;-33.910;151.156;2022-12-07T00:56:25;28.10;99.90
16114;DHT22;8161;-33.910;151.156;2022-12-07T00:58:55;28.10;99.90
16114;DHT22;8161;-33.910;151.156;2022-12-07T01:01:23;28.20;99.90
16114;DHT22;8161;-33.910;151.156;2022-12-07T01:03:51;28.20;99.90
16114;DHT22;8161;-33.910;151.156;2022-12-07T01:06:22;28.20;99.90
16114;DHT22;8161;-33.910;151.156;2022-12-07T01:08:50;28.00;99.90
16114;DHT22;8161;-33.910;151.156;2022-12-07T01:11:20;27.90;99.90
16114;DHT22;8161;-33.910;151.156;2022-12-07T01:13:51;27.50;99.90
16114;DHT22;8161;-33.910;151.156;2022-12-07T01:16:19;27.70;99.90
16114;DHT22;8161;-33.910;151.156;2022-12-07T01:18:49;27.80;99.90
16114;DHT22;8161;-33.910;151.156;2022-12-07T01:21:36;27.70;99.90
16114;DHT22;8161;-33.910;151.156;2022-12-07T01:24:08;27.70;99.90
16114;DHT22;8161;-33.910;151.156;2022-12-07T01:26:36;27.70;99.90
16114;DHT22;8161;-33.910;151.156;2022-12-07T01:29:03;27.80;99.90
16114;DHT22;8161;-33.910;151.156;2022-12-07T01:31:31;27.70;99.90
16114;DHT22;8161;-33.910;151.156;2022-12-07T01:33:59;27.60;99.90
16114;DHT22;8161;-33.910;151.156;2022-12-07T01:36:32;27.20;99.90
16114;DHT22;8161;-33.910;151.156;2022-12-07T01:39:03;26.50;99.90
16114;DHT22;8161;-33.910;151.156;2022-12-07T01:41:34;26.90;99.90
16114;DHT22;8161;-33.910;151.156;2022-12-07T01:46:45;26.30;99.90
16114;DHT22;8161;-33.910;151.156;2022-12-07T01:49:27;26.30;99.90
16114;DHT22;8161;-33.910;151.156;2022-12-07T01:54:33;25.70;99.90
16114;DHT22;8161;-33.910;151.156;2022-12-07T01:57:01;26.20;99.90
16114;DHT22;8161;-33.910;151.156;2022-12-07T01:59:29;26.20;99.90
16114;DHT22;8161;-33.910;151.156;2022-12-07T02:01:57;26.20;99.90
16114;DHT22;8161;-33.910;151.156;2022-12-07T02:04:25;26.30;99.90
16114;DHT22;8161;-33.910;151.156;2022-12-07T02:06:52;26.60;99.90
16114;DHT22;8161;-33.910;151.156;2022-12-07T02:09:22;25.90;99.90
16114;DHT22;8161;-33.910;151.156;2022-12-07T02:11:49;26.20;99.90
16114;DHT22;8161;-33.910;151.156;2022-12-07T02:14:17;26.20;99.90
16114;DHT22;8161;-33.910;151.156;2022-12-07T02:30:47;26.80;99.90
16114;DHT22;8161;-33.910;151.156;2022-12-07T02:33:28;27.30;99.90
16114;DHT22;8161;-33.910;151.156;2022-12-07T02:36:22;26.90;99.90
16114;DHT22;8161;-33.910;151.156;2022-12-07T02:38:58;27.40;99.90
16114;DHT22;8161;-33.910;151.156;2022-12-07T02:41:37;27.30;99.90
16114;DHT22;8161;-33.910;151.156;2022-12-07T02:44:13;27.10;99.90
16114;DHT22;8161;-33.910;151.156;2022-12-07T02:46:57;27.10;99.90
16114;DHT22;8161;-33.910;151.156;2022-12-07T02:49:27;26.60;99.90
16114;DHT22;8161;-33.910;151.156;2022-12-07T02:51:55;26.70;99.90
16114;DHT22;8161;-33.910;151.156;2022-12-07T02:54:22;26.80;99.90
16114;DHT22;8161;-33.910;151.156;2022-12-07T02:59:59;26.40;99.90
16114;DHT22;8161;-33.910;151.156;2022-12-07T03:14:13;26.00;99.90
16114;DHT22;8161;-33.910;151.156;2022-12-07T03:17:16;25.60;99.90
16114;DHT22;8161;-33.910;151.156;2022-12-07T03:19:46;26.20;99.90
16114;DHT22;8161;-33.910;151.156;2022-12-07T03:22:15;25.90;99.90
16114;DHT22;8161;-33.910;151.156;2022-12-07T03:24:55;26.40;99.90
16114;DHT22;8161;-33.910;151.156;2022-12-07T03:27:34;26.10;99.90
16114;DHT22;8161;-33.910;151.156;2022-12-07T03:30:07;26.20;99.90
16114;DHT22;8161;-33.910;151.156;2022-12-07T03:32:44;26.40;99.90
16114;DHT22;8161;-33.910;151.156;2022-12-07T03:35:29;26.50;99.90
16114;DHT22;8161;-33.910;151.156;2022-12-07T03:38:04;26.60;99.90
16114;DHT22;8161;-33.910;151.156;2022-12-07T03:41:01;26.00;99.90
16114;DHT22;8161;-33.910;151.156;2022-12-07T03:43:30;26.20;99.90
16114;DHT22;8161;-33.910;151.156;2022-12-07T03:52:17;26.20;99.90
16114;DHT22;8161;-33.910;151.156;2022-12-07T03:55:07;26.40;99.90
16114;DHT22;8161;-33.910;151.156;2022-12-07T03:57:35;26.30;99.90
16114;DHT22;8161;-33.910;151.156;2022-12-07T04:00:06;26.40;99.90
16114;DHT22;8161;-33.910;151.156;2022-12-07T04:02:34;26.30;99.90
16114;DHT22;8161;-33.910;151.156;2022-12-07T04:05:04;26.40;99.90
16114;DHT22;8161;-33.910;151.156;2022-12-07T04:07:31;26.40;99.90
16114;DHT22;8161;-33.910;151.156;2022-12-07T04:09:58;26.50;99.90
16114;DHT22;8161;-33.910;151.156;2022-12-07T04:12:26;26.30;99.90
16114;DHT22;8161;-33.910;151.156;2022-12-07T04:14:53;26.50;99.90
16114;DHT22;8161;-33.910;151.156;2022-12-07T04:17:20;25.80;99.90
16114;DHT22;8161;-33.910;151.156;2022-12-07T04:19:49;26.00;99.90
16114;DHT22;8161;-33.910;151.156;2022-12-07T04:22:18;26.40;99.90
16114;DHT22;8161;-33.910;151.156;2022-12-07T04:24:45;26.20;99.90
16114;DHT22;8161;-33.910;151.156;2022-12-07T04:27:13;26.50;99.90
16114;DHT22;8161;-33.910;151.156;2022-12-07T04:29:40;26.20;99.90
16114;DHT22;8161;-33.910;151.156;2022-12-07T04:32:07;26.30;99.90
16114;DHT22;8161;-33.910;151.156;2022-12-07T04:34:35;26.40;99.90
16114;DHT22;8161;-33.910;151.156;2022-12-07T04:37:03;26.50;93.10
16114;DHT22;8161;-33.910;151.156;2022-12-07T04:39:32;26.70;79.60
16114;DHT22;8161;-33.910;151.156;2022-12-07T04:42:00;26.70;78.10
16114;DHT22;8161;-33.910;151.156;2022-12-07T04:44:28;26.90;74.40
16114;DHT22;8161;-33.910;151.156;2022-12-07T04:46:56;26.90;76.20
16114;DHT22;8161;-33.910;151.156;2022-12-07T04:49:24;27.00;70.50
16114;DHT22;8161;-33.910;151.156;2022-12-07T04:51:52;27.30;68.60
16114;DHT22;8161;-33.910;151.156;2022-12-07T04:54:19;27.20;64.80
16114;DHT22;8161;-33.910;151.156;2022-12-07T04:56:46;27.00;67.30
16114;DHT22;8161;-33.910;151.156;2022-12-07T04:59:15;27.20;64.40
16114;DHT22;8161;-33.910;151.156;2022-12-07T05:01:43;27.20;63.50
16114;DHT22;8161;-33.910;151.156;2022-12-07T05:04:11;27.20;63.90
16114;DHT22;8161;-33.910;151.156;2022-12-07T05:06:38;27.40;65.50
16114;DHT22;8161;-33.910;151.156;2022-12-07T05:09:06;27.10;61.80
16114;DHT22;8161;-33.910;151.156;2022-12-07T05:11:33;26.90;63.50
16114;DHT22;8161;-33.910;151.156;2022-12-07T05:14:16;27.00;59.80
16114;DHT22;8161;-33.910;151.156;2022-12-07T05:16:46;27.10;61.40
16114;DHT22;8161;-33.910;151.156;2022-12-07T05:19:14;27.10;62.20
16114;DHT22;8161;-33.910;151.156;2022-12-07T05:21:41;27.00;64.60
16114;DHT22;8161;-33.910;151.156;2022-12-07T05:24:11;27.50;64.90
16114;DHT22;8161;-33.910;151.156;2022-12-07T05:26:39;27.10;64.30
16114;DHT22;8161;-33.910;151.156;2022-12-07T05:29:06;26.90;65.50
16114;DHT22;8161;-33.910;151.156;2022-12-07T05:31:33;27.10;66.30
16114;DHT22;8161;-33.910;151.156;2022-12-07T05:34:01;26.70;66.00
16114;DHT22;8161;-33.910;151.156;2022-12-07T05:36:28;26.60;64.80
16114;DHT22;8161;-33.910;151.156;2022-12-07T05:38:59;26.80;61.00
16114;DHT22;8161;-33.910;151.156;2022-12-07T05:41:26;26.60;65.30
16114;DHT22;8161;-33.910;151.156;2022-12-07T05:44:07;26.80;62.00
16114;DHT22;8161;-33.910;151.156;2022-12-07T05:46:34;26.80;65.80
16114;DHT22;8161;-33.910;151.156;2022-12-07T05:49:02;26.60;66.00
16114;DHT22;8161;-33.910;151.156;2022-12-07T05:51:30;26.70;62.60
16114;DHT22;8161;-33.910;151.156;2022-12-07T05:53:58;26.70;63.10
16114;DHT22;8161;-33.910;151.156;2022-12-07T05:56:25;27.00;67.90
16114;DHT22;8161;-33.910;151.156;2022-12-07T05:58:53;26.60;66.60
16114;DHT22;8161;-33.910;151.156;2022-12-07T06:01:35;26.60;67.60
16114;DHT22;8161;-33.910;151.156;2022-12-07T06:04:02;26.10;66.70
16114;DHT22;8161;-33.910;151.156;2022-12-07T06:06:30;26.50;63.60
16114;DHT22;8161;-33.910;151.156;2022-12-07T06:08:57;26.50;65.00
16114;DHT22;8161;-33.910;151.156;2022-12-07T06:11:25;26.50;63.30
16114;DHT22;8161;-33.910;151.156;2022-12-07T06:14:05;26.50;63.70
16114;DHT22;8161;-33.910;151.156;2022-12-07T06:16:32;26.30;67.20
16114;DHT22;8161;-33.910;151.156;2022-12-07T06:19:00;26.50;68.40
16114;DHT22;8161;-33.910;151.156;2022-12-07T06:21:28;26.30;67.70
16114;DHT22;8161;-33.910;151.156;2022-12-07T06:23:55;26.40;64.20
16114;DHT22;8161;-33.910;151.156;2022-12-07T06:26:23;26.00;69.10
16114;DHT22;8161;-33.910;151.156;2022-12-07T06:28:50;26.30;66.00
16114;DHT22;8161;-33.910;151.156;2022-12-07T06:31:18;26.00;72.40
16114;DHT22;8161;-33.910;151.156;2022-12-07T06:33:45;25.90;73.20
16114;DHT22;8161;-33.910;151.156;2022-12-07T06:36:13;25.80;74.70
16114;DHT22;8161;-33.910;151.156;2022-12-07T06:38:41;26.30;75.20
16114;DHT22;8161;-33.910;151.156;2022-12-07T06:41:09;25.70;76.00
16114;DHT22;8161;-33.910;151.156;2022-12-07T06:43:36;26.00;76.60
16114;DHT22;8161;-33.910;151.156;2022-12-07T06:46:04;25.80;76.00
16114;DHT22;8161;-33.910;151.156;2022-12-07T06:48:32;25.90;78.00
16114;DHT22;8161;-33.910;151.156;2022-12-07T06:51:00;25.50;81.20
16114;DHT22;8161;-33.910;151.156;2022-12-07T06:53:27;25.90;77.10
16114;DHT22;8161;-33.910;151.156;2022-12-07T06:55:54;26.10;84.90
16114;DHT22;8161;-33.910;151.156;2022-12-07T06:58:22;25.60;86.70
16114;DHT22;8161;-33.910;151.156;2022-12-07T07:00:49;25.70;82.00
16114;DHT22;8161;-33.910;151.156;2022-12-07T07:03:18;25.60;85.10
16114;DHT22;8161;-33.910;151.156;2022-12-07T07:05:45;25.60;91.50
16114;DHT22;8161;-33.910;151.156;2022-12-07T07:08:13;25.90;91.80
16114;DHT22;8161;-33.910;151.156;2022-12-07T07:10:41;25.30;91.90
16114;DHT22;8161;-33.910;151.156;2022-12-07T07:13:09;25.00;92.20
16114;DHT22;8161;-33.910;151.156;2022-12-07T07:15:38;25.50;93.20
16114;DHT22;8161;-33.910;151.156;2022-12-07T07:18:05;25.40;93.90
16114;DHT22;8161;-33.910;151.156;2022-12-07T07:20:32;25.80;94.00
16114;DHT22;8161;-33.910;151.156;2022-12-07T07:23:00;25.70;94.50
16114;DHT22;8161;-33.910;151.156;2022-12-07T07:25:27;25.40;91.40
16114;DHT22;8161;-33.910;151.156;2022-12-07T07:27:55;25.10;94.70
16114;DHT22;8161;-33.910;151.156;2022-12-07T07:30:22;25.40;95.10
16114;DHT22;8161;-33.910;151.156;2022-12-07T07:32:49;25.20;95.40
16114;DHT22;8161;-33.910;151.156;2022-12-07T07:35:17;25.30;92.30
16114;DHT22;8161;-33.910;151.156;2022-12-07T07:37:44;25.40;96.30
16114;DHT22;8161;-33.910;151.156;2022-12-07T07:40:11;25.40;97.10
16114;DHT22;8161;-33.910;151.156;2022-12-07T07:42:39;25.00;97.20
16114;DHT22;8161;-33.910;151.156;2022-12-07T07:45:06;25.40;98.10
16114;DHT22;8161;-33.910;151.156;2022-12-07T07:47:34;24.90;98.20
16114;DHT22;8161;-33.910;151.156;2022-12-07T07:50:02;25.10;98.80
16114;DHT22;8161;-33.910;151.156;2022-12-07T07:52:30;25.00;99.70
16114;DHT22;8161;-33.910;151.156;2022-12-07T07:54:57;24.70;99.90
16114;DHT22;8161;-33.910;151.156;2022-12-07T07:57:25;24.90;99.90
16114;DHT22;8161;-33.910;151.156;2022-12-07T07:59:53;24.80;99.90
16114;DHT22;8161;-33.910;151.156;2022-12-07T08:02:21;24.70;99.90
16114;DHT22;8161;-33.910;151.156;2022-12-07T08:04:49;24.90;99.90
16114;DHT22;8161;-33.910;151.156;2022-12-07T08:07:17;24.90;99.10
16114;DHT22;8161;-33.910;151.156;2022-12-07T08:09:44;24.80;99.90
16114;DHT22;8161;-33.910;151.156;2022-12-07T08:12:11;24.70;99.90
16114;DHT22;8161;-33.910;151.156;2022-12-07T08:14:39;24.70;99.90
16114;DHT22;8161;-33.910;151.156;2022-12-07T08:17:07;24.90;99.90
16114;DHT22;8161;-33.910;151.156;2022-12-07T08:19:35;24.90;99.90
16114;DHT22;8161;-33.910;151.156;2022-12-07T08:22:02;25.10;99.90
16114;DHT22;8161;-33.910;151.156;2022-12-07T08:24:30;25.10;99.90
16114;DHT22;8161;-33.910;151.156;2022-12-07T08:26:59;24.70;99.90
16114;DHT22;8161;-33.910;151.156;2022-12-07T08:29:26;24.70;99.90
16114;DHT22;8161;-33.910;151.156;2022-12-07T08:31:53;24.40;99.90
16114;DHT22;8161;-33.910;151.156;2022-12-07T08:34:21;24.60;99.90
16114;DHT22;8161;-33.910;151.156;2022-12-07T08:36:48;24.50;99.90
16114;DHT22;8161;-33.910;151.156;2022-12-07T08:39:16;24.30;99.90
16114;DHT22;8161;-33.910;151.156;2022-12-07T08:41:43;24.20;99.90
16114;DHT22;8161;-33.910;151.156;2022-12-07T08:44:10;24.90;99.90
16114;DHT22;8161;-33.910;151.156;2022-12-07T08:46:52;24.30;99.90
16114;DHT22;8161;-33.910;151.156;2022-12-07T08:49:24;24.90;99.90
16114;DHT22;8161;-33.910;151.156;2022-12-07T08:51:54;24.80;99.90
16114;DHT22;8161;-33.910;151.156;2022-12-07T08:54:22;24.70;99.90
16114;DHT22;8161;-33.910;151.156;2022-12-07T08:56:50;24.50;99.90
16114;DHT22;8161;-33.910;151.156;2022-12-07T08:59:19;24.80;99.90
16114;DHT22;8161;-33.910;151.156;2022-12-07T09:01:48;24.10;99.90
16114;DHT22;8161;-33.910;151.156;2022-12-07T09:04:15;24.20;99.90
16114;DHT22;8161;-33.910;151.156;2022-12-07T09:06:45;24.30;99.90
16114;DHT22;8161;-33.910;151.156;2022-12-07T09:09:14;24.50;99.90
16114;DHT22;8161;-33.910;151.156;2022-12-07T09:11:42;24.40;99.90
16114;DHT22;8161;-33.910;151.156;2022-12-07T09:14:12;24.70;99.90
16114;DHT22;8161;-33.910;151.156;2022-12-07T09:16:40;24.30;99.90
16114;DHT22;8161;-33.910;151.156;2022-12-07T09:19:08;24.00;99.90
16114;DHT22;8161;-33.910;151.156;2022-12-07T09:21:36;24.10;99.90
16114;DHT22;8161;-33.910;151.156;2022-12-07T09:24:03;24.10;99.90
16114;DHT22;8161;-33.910;151.156;2022-12-07T09:26:30;24.40;99.90
16114;DHT22;8161;-33.910;151.156;2022-12-07T09:28:58;24.10;99.90
16114;DHT22;8161;-33.910;151.156;2022-12-07T09:31:26;23.80;99.90
16114;DHT22;8161;-33.910;151.156;2022-12-07T09:33:57;23.90;99.90
16114;DHT22;8161;-33.910;151.156;2022-12-07T09:36:28;23.80;99.90
16114;DHT22;8161;-33.910;151.156;2022-12-07T09:38:56;23.90;99.90
16114;DHT22;8161;-33.910;151.156;2022-12-07T09:41:24;24.40;99.90
16114;DHT22;8161;-33.910;151.156;2022-12-07T09:43:54;24.20;99.90
16114;DHT22;8161;-33.910;151.156;2022-12-07T09:46:25;24.10;99.90
16114;DHT22;8161;-33.910;151.156;2022-12-07T09:48:52;24.00;99.90
16114;DHT22;8161;-33.910;151.156;2022-12-07T09:51:23;23.90;99.90
16114;DHT22;8161;-33.910;151.156;2022-12-07T09:53:56;24.50;99.90
16114;DHT22;8161;-33.910;151.156;2022-12-07T09:56:25;24.50;99.90
16114;DHT22;8161;-33.910;151.156;2022-12-07T09:59:01;24.10;99.90
16114;DHT22;8161;-33.910;151.156;2022-12-07T10:01:32;24.10;99.90
16114;DHT22;8161;-33.910;151.156;2022-12-07T10:06:40;24.00;99.90
16114;DHT22;8161;-33.910;151.156;2022-12-07T10:09:13;23.80;99.90
16114;DHT22;8161;-33.910;151.156;2022-12-07T10:14:55;23.50;99.90
16114;DHT22;8161;-33.910;151.156;2022-12-07T10:17:47;23.70;99.90
16114;DHT22;8161;-33.910;151.156;2022-12-07T10:23:02;23.90;99.90
16114;DHT22;8161;-33.910;151.156;2022-12-07T10:25:35;24.20;99.90
16114;DHT22;8161;-33.910;151.156;2022-12-07T10:36:25;23.40;99.90
16114;DHT22;8161;-33.910;151.156;2022-12-07T10:39:16;23.90;99.90
16114;DHT22;8161;-33.910;151.156;2022-12-07T10:41:58;24.00;99.90
16114;DHT22;8161;-33.910;151.156;2022-12-07T10:44:31;23.70;99.90
16114;DHT22;8161;-33.910;151.156;2022-12-07T10:58:11;23.70;99.90
16114;DHT22;8161;-33.910;151.156;2022-12-07T11:01:03;23.40;99.90
16114;DHT22;8161;-33.910;151.156;2022-12-07T11:08:47;23.50;99.90
16114;DHT22;8161;-33.910;151.156;2022-12-07T11:22:19;23.90;99.90
16114;DHT22;8161;-33.910;151.156;2022-12-07T11:30:57;23.90;99.90
16114;DHT22;8161;-33.910;151.156;2022-12-07T11:39:00;23.20;99.90
16114;DHT22;8161;-33.910;151.156;2022-12-07T11:41:34;23.60;99.90
16114;DHT22;8161;-33.910;151.156;2022-12-07T11:47:16;23.50;99.90
16114;DHT22;8161;-33.910;151.156;2022-12-07T11:54:58;23.60;99.90
16114;DHT22;8161;-33.910;151.156;2022-12-07T11:57:41;23.20;99.90
16114;DHT22;8161;-33.910;151.156;2022-12-07T12:00:17;23.40;99.90
16114;DHT22;8161;-33.910;151.156;2022-12-07T12:03:15;23.00;99.90
16114;DHT22;8161;-33.910;151.156;2022-12-07T12:05:50;23.50;99.90
16114;DHT22;8161;-33.910;151.156;2022-12-07T12:08:26;23.10;99.90
16114;DHT22;8161;-33.910;151.156;2022-12-07T12:13:51;23.50;99.90
16114;DHT22;8161;-33.910;151.156;2022-12-07T12:21:31;22.80;99.90
16114;DHT22;8161;-33.910;151.156;2022-12-07T12:24:14;23.50;99.90
16114;DHT22;8161;-33.910;151.156;2022-12-07T12:26:52;23.30;99.90
16114;DHT22;8161;-33.910;151.156;2022-12-07T12:37:47;23.00;99.90
16114;DHT22;8161;-33.910;151.156;2022-12-07T12:42:50;22.80;99.90
16114;DHT22;8161;-33.910;151.156;2022-12-07T12:48:00;22.90;99.90
16114;DHT22;8161;-33.910;151.156;2022-12-07T12:50:38;23.00;99.90
16114;DHT22;8161;-33.910;151.156;2022-12-07T12:53:16;22.90;99.90
16114;DHT22;8161;-33.910;151.156;2022-12-07T12:55:48;23.00;99.90
16114;DHT22;8161;-33.910;151.156;2022-12-07T13:01:40;22.90;99.90
16114;DHT22;8161;-33.910;151.156;2022-12-07T13:04:00;22.60;99.90
16114;DHT22;8161;-33.910;151.156;2022-12-07T13:08:57;23.00;99.90
16114;DHT22;8161;-33.910;151.156;2022-12-07T13:11:35;22.70;99.90
16114;DHT22;8161;-33.910;151.156;2022-12-07T13:16:57;22.80;99.90
16114;DHT22;8161;-33.910;151.156;2022-12-07T13:19:54;22.40;99.90
16114;DHT22;8161;-33.910;151.156;2022-12-07T13:22:39;22.90;99.90
16114;DHT22;8161;-33.910;151.156;2022-12-07T13:25:28;22.30;99.90
16114;DHT22;8161;-33.910;151.156;2022-12-07T13:28:07;22.60;99.90
16114;DHT22;8161;-33.910;151.156;2022-12-07T13:33:35;22.50;99.90
16114;DHT22;8161;-33.910;151.156;2022-12-07T13:36:21;22.80;99.90
16114;DHT22;8161;-33.910;151.156;2022-12-07T13:38:54;23.00;99.90
16114;DHT22;8161;-33.910;151.156;2022-12-07T13:41:26;22.10;99.90
16114;DHT22;8161;-33.910;151.156;2022-12-07T13:44:01;22.90;99.90
16114;DHT22;8161;-33.910;151.156;2022-12-07T13:49:29;22.20;99.90
16114;DHT22;8161;-33.910;151.156;2022-12-07T13:57:18;22.40;99.90
16114;DHT22;8161;-33.910;151.156;2022-12-07T13:59:46;22.40;99.90
16114;DHT22;8161;-33.910;151.156;2022-12-07T14:02:34;22.50;99.90
16114;DHT22;8161;-33.910;151.156;2022-12-07T14:05:13;22.50;99.90
16114;DHT22;8161;-33.910;151.156;2022-12-07T14:08:02;22.20;99.90
16114;DHT22;8161;-33.910;151.156;2022-12-07T14:10:33;22.10;99.90
16114;DHT22;8161;-33.910;151.156;2022-12-07T14:13:02;22.20;99.90
16114;DHT22;8161;-33.910;151.156;2022-12-07T14:15:34;22.00;99.90
16114;DHT22;8161;-33.910;151.156;2022-12-07T14:18:02;22.10;99.90
16114;DHT22;8161;-33.910;151.156;2022-12-07T14:20:41;22.00;99.90
16114;DHT22;8161;-33.910;151.156;2022-12-07T14:23:25;21.70;99.90
16114;DHT22;8161;-33.910;151.156;2022-12-07T14:25:53;22.00;99.90
16114;DHT22;8161;-33.910;151.156;2022-12-07T14:28:31;22.20;99.90
16114;DHT22;8161;-33.910;151.156;2022-12-07T14:31:01;21.60;99.90
16114;DHT22;8161;-33.910;151.156;2022-12-07T14:33:29;22.00;99.90
16114;DHT22;8161;-33.910;151.156;2022-12-07T14:35:56;22.00;99.90
16114;DHT22;8161;-33.910;151.156;2022-12-07T14:38:28;21.80;99.90
16114;DHT22;8161;-33.910;151.156;2022-12-07T14:40:57;21.90;99.90
16114;DHT22;8161;-33.910;151.156;2022-12-07T14:43:37;21.60;99.90
16114;DHT22;8161;-33.910;151.156;2022-12-07T14:46:06;21.30;99.90
16114;DHT22;8161;-33.910;151.156;2022-12-07T14:48:33;21.60;99.90
16114;DHT22;8161;-33.910;151.156;2022-12-07T14:51:00;21.70;99.90
16114;DHT22;8161;-33.910;151.156;2022-12-07T14:53:36;21.80;99.90
16114;DHT22;8161;-33.910;151.156;2022-12-07T14:56:06;21.60;99.90
16114;DHT22;8161;-33.910;151.156;2022-12-07T14:58:34;21.60;99.90
16114;DHT22;8161;-33.910;151.156;2022-12-07T15:01:01;21.20;99.90
16114;DHT22;8161;-33.910;151.156;2022-12-07T15:03:28;21.40;99.90
16114;DHT22;8161;-33.910;151.156;2022-12-07T15:05:56;21.30;99.90
16114;DHT22;8161;-33.910;151.156;2022-12-07T15:08:24;21.20;99.90
16114;DHT22;8161;-33.910;151.156;2022-12-07T15:10:51;21.50;99.90
16114;DHT22;8161;-33.910;151.156;2022-12-07T15:13:18;21.40;99.90
16114;DHT22;8161;-33.910;151.156;2022-12-07T15:16:00;21.40;99.90
16114;DHT22;8161;-33.910;151.156;2022-12-07T15:18:27;21.30;99.90
16114;DHT22;8161;-33.910;151.156;2022-12-07T15:20:55;21.30;99.90
16114;DHT22;8161;-33.910;151.156;2022-12-07T15:23:22;21.50;99.90
16114;DHT22;8161;-33.910;151.156;2022-12-07T15:25:51;21.30;99.90
16114;DHT22;8161;-33.910;151.156;2022-12-07T15:28:19;21.20;99.90
16114;DHT22;8161;-33.910;151.156;2022-12-07T15:30:46;21.40;99.90
16114;DHT22;8161;-33.910;151.156;2022-12-07T15:33:14;21.20;99.90
16114;DHT22;8161;-33.910;151.156;2022-12-07T15:35:43;21.20;99.90
16114;DHT22;8161;-33.910;151.156;2022-12-07T15:38:11;21.50;99.90
16114;DHT22;8161;-33.910;151.156;2022-12-07T15:40:39;21.30;99.90
16114;DHT22;8161;-33.910;151.156;2022-12-07T15:43:09;21.30;99.90
16114;DHT22;8161;-33.910;151.156;2022-12-07T15:45:56;21.30;99.90
16114;DHT22;8161;-33.910;151.156;2022-12-07T15:48:23;21.30;99.90
16114;DHT22;8161;-33.910;151.156;2022-12-07T15:50:50;21.30;99.90
16114;DHT22;8161;-33.910;151.156;2022-12-07T15:53:18;21.40;99.90
16114;DHT22;8161;-33.910;151.156;2022-12-07T15:55:45;21.30;99.90
16114;DHT22;8161;-33.910;151.156;2022-12-07T15:58:13;21.20;99.90
16114;DHT22;8161;-33.910;151.156;2022-12-07T16:00:40;21.30;99.90
16114;DHT22;8161;-33.910;151.156;2022-12-07T16:03:07;21.00;99.90
16114;DHT22;8161;-33.910;151.156;2022-12-07T16:05:34;21.20;99.90
16114;DHT22;8161;-33.910;151.156;2022-12-07T16:08:02;20.90;99.90
16114;DHT22;8161;-33.910;151.156;2022-12-07T16:10:29;21.40;99.90
16114;DHT22;8161;-33.910;151.156;2022-12-07T16:12:56;20.90;99.90
16114;DHT22;8161;-33.910;151.156;2022-12-07T16:15:24;20.90;99.90
16114;DHT22;8161;-33.910;151.156;2022-12-07T16:17:52;21.60;99.90
16114;DHT22;8161;-33.910;151.156;2022-12-07T16:20:19;21.00;99.90
16114;DHT22;8161;-33.910;151.156;2022-12-07T16:22:47;21.40;99.90
16114;DHT22;8161;-33.910;151.156;2022-12-07T16:25:17;21.50;99.90
16114;DHT22;8161;-33.910;151.156;2022-12-07T16:27:46;21.40;99.90
16114;DHT22;8161;-33.910;151.156;2022-12-07T16:30:14;21.10;99.90
16114;DHT22;8161;-33.910;151.156;2022-12-07T16:32:43;21.30;99.90
16114;DHT22;8161;-33.910;151.156;2022-12-07T16:35:10;21.10;99.90
16114;DHT22;8161;-33.910;151.156;2022-12-07T16:37:38;20.80;99.90
16114;DHT22;8161;-33.910;151.156;2022-12-07T16:40:06;21.20;99.90
16114;DHT22;8161;-33.910;151.156;2022-12-07T16:42:34;21.30;99.90
16114;DHT22;8161;-33.910;151.156;2022-12-07T16:45:02;20.70;99.90
16114;DHT22;8161;-33.910;151.156;2022-12-07T16:47:30;20.90;99.90
16114;DHT22;8161;-33.910;151.156;2022-12-07T16:49:57;21.30;99.90
16114;DHT22;8161;-33.910;151.156;2022-12-07T16:52:25;21.20;99.90
16114;DHT22;8161;-33.910;151.156;2022-12-07T16:54:52;21.00;99.90
16114;DHT22;8161;-33.910;151.156;2022-12-07T16:57:19;21.00;99.90
16114;DHT22;8161;-33.910;151.156;2022-12-07T16:59:47;20.70;99.90
16114;DHT22;8161;-33.910;151.156;2022-12-07T17:02:14;21.10;99.90
16114;DHT22;8161;-33.910;151.156;2022-12-07T17:04:41;20.90;99.90
16114;DHT22;8161;-33.910;151.156;2022-12-07T17:07:09;21.20;99.90
16114;DHT22;8161;-33.910;151.156;2022-12-07T17:09:37;20.80;99.90
16114;DHT22;8161;-33.910;151.156;2022-12-07T17:12:04;20.50;99.90
16114;DHT22;8161;-33.910;151.156;2022-12-07T17:14:33;21.00;99.90
16114;DHT22;8161;-33.910;151.156;2022-12-07T17:17:13;20.80;99.90
16114;DHT22;8161;-33.910;151.156;2022-12-07T17:19:41;20.50;99.90
16114;DHT22;8161;-33.910;151.156;2022-12-07T17:22:08;20.30;99.90
16114;DHT22;8161;-33.910;151.156;2022-12-07T17:24:40;20.70;99.90
16114;DHT22;8161;-33.910;151.156;2022-12-07T17:27:07;20.50;99.90
16114;DHT22;8161;-33.910;151.156;2022-12-07T17:29:34;20.50;99.90
16114;DHT22;8161;-33.910;151.156;2022-12-07T17:32:02;20.30;99.90
16114;DHT22;8161;-33.910;151.156;2022-12-07T17:34:29;20.40;99.90
16114;DHT22;8161;-33.910;151.156;2022-12-07T17:36:56;20.60;99.90
16114;DHT22;8161;-33.910;151.156;2022-12-07T17:39:24;20.50;99.90
16114;DHT22;8161;-33.910;151.156;2022-12-07T17:41:52;20.60;99.90
16114;DHT22;8161;-33.910;151.156;2022-12-07T17:44:32;20.60;99.90
16114;DHT22;8161;-33.910;151.156;2022-12-07T17:47:00;20.50;99.90
16114;DHT22;8161;-33.910;151.156;2022-12-07T17:49:29;20.70;99.90